sensor_id;sensor_type;location;lat;lon;timestamp;temperature;humidity
50969;DHT22;36982;51.474;7.228;2022-10-16T00:00:35;14.00;99.90
50969;DHT22;36982;51.474;7.228;2022-10-16T00:03:02;14.10;99.90
50969;DHT22;36982;51.474;7.228;2022-10-16T00:05:28;14.00;99.90
50969;DHT22;36982;51.474;7.228;2022-10-16T00:08:20;14.00;99.90
50969;DHT22;36982;51.474;7.228;2022-10-16T00:10:46;14.00;99.90
50969;DHT22;36982;51.474;7.228;2022-10-16T00:13:11;13.90;99.90
50969;DHT22;36982;51.474;7.228;2022-10-16T00:15:37;13.80;99.90
50969;DHT22;36982;51.474;7.228;2022-10-16T00:18:05;13.80;99.90
50969;DHT22;36982;51.474;7.228;2022-10-16T00:20:33;13.90;99.90
50969;DHT22;36982;51.474;7.228;2022-10-16T00:22:59;13.90;99.90
50969;DHT22;36982;51.474;7.228;2022-10-16T00:25:25;14.00;99.90
50969;DHT22;36982;51.474;7.228;2022-10-16T00:27:50;13.90;99.90
50969;DHT22;36982;51.474;7.228;2022-10-16T00:30:16;13.80;99.90
50969;DHT22;36982;51.474;7.228;2022-10-16T00:32:42;13.90;99.90
50969;DHT22;36982;51.474;7.228;2022-10-16T00:35:07;13.90;99.90
50969;DHT22;36982;51.474;7.228;2022-10-16T00:37:33;13.90;99.90
50969;DHT22;36982;51.474;7.228;2022-10-16T00:39:58;14.10;99.90
50969;DHT22;36982;51.474;7.228;2022-10-16T00:42:24;13.90;99.90
50969;DHT22;36982;51.474;7.228;2022-10-16T00:47:29;14.00;99.90
50969;DHT22;36982;51.474;7.228;2022-10-16T00:50:00;14.00;99.90
50969;DHT22;36982;51.474;7.228;2022-10-16T00:52:27;13.90;99.90
50969;DHT22;36982;51.474;7.228;2022-10-16T00:54:54;13.90;99.90
50969;DHT22;36982;51.474;7.228;2022-10-16T00:57:20;13.80;99.90
50969;DHT22;36982;51.474;7.228;2022-10-16T00:59:46;13.90;99.90
50969;DHT22;36982;51.474;7.228;2022-10-16T01:02:15;13.70;99.90
50969;DHT22;36982;51.474;7.228;2022-10-16T01:04:44;13.80;99.90
50969;DHT22;36982;51.474;7.228;2022-10-16T01:07:24;13.70;99.90
50969;DHT22;36982;51.474;7.228;2022-10-16T01:15:46;13.80;99.90
50969;DHT22;36982;51.474;7.228;2022-10-16T01:18:34;13.80;99.90
50969;DHT22;36982;51.474;7.228;2022-10-16T01:21:08;13.70;99.90
50969;DHT22;36982;51.474;7.228;2022-10-16T01:29:40;13.80;99.90
50969;DHT22;36982;51.474;7.228;2022-10-16T01:32:19;13.70;99.90
50969;DHT22;36982;51.474;7.228;2022-10-16T01:35:02;13.60;99.90
50969;DHT22;36982;51.474;7.228;2022-10-16T01:37:37;13.70;99.90
50969;DHT22;36982;51.474;7.228;2022-10-16T01:40:09;13.60;99.90
50969;DHT22;36982;51.474;7.228;2022-10-16T01:42:38;13.60;99.90
50969;DHT22;36982;51.474;7.228;2022-10-16T01:45:05;13.60;99.90
50969;DHT22;36982;51.474;7.228;2022-10-16T01:47:33;13.60;99.90
50969;DHT22;36982;51.474;7.228;2022-10-16T01:50:02;13.60;99.90
50969;DHT22;36982;51.474;7.228;2022-10-16T01:52:31;13.50;99.90
50969;DHT22;36982;51.474;7.228;2022-10-16T01:54:58;13.50;99.90
50969;DHT22;36982;51.474;7.228;2022-10-16T01:57:26;13.50;99.90
50969;DHT22;36982;51.474;7.228;2022-10-16T01:59:56;13.40;99.90
50969;DHT22;36982;51.474;7.228;2022-10-16T02:02:27;13.50;99.90
50969;DHT22;36982;51.474;7.228;2022-10-16T02:05:04;13.50;99.90
50969;DHT22;36982;51.474;7.228;2022-10-16T02:07:33;13.50;99.90
50969;DHT22;36982;51.474;7.228;2022-10-16T02:10:00;13.50;99.90
50969;DHT22;36982;51.474;7.228;2022-10-16T02:12:26;13.50;99.90
50969;DHT22;36982;51.474;7.228;2022-10-16T02:14:52;13.60;99.90
50969;DHT22;36982;51.474;7.228;2022-10-16T02:17:19;13.70;99.90
50969;DHT22;36982;51.474;7.228;2022-10-16T02:19:47;13.70;99.90
50969;DHT22;36982;51.474;7.228;2022-10-16T02:25:10;13.80;99.90
50969;DHT22;36982;51.474;7.228;2022-10-16T02:30:45;13.80;99.90
50969;DHT22;36982;51.474;7.228;2022-10-16T02:33:14;13.80;99.90
50969;DHT22;36982;51.474;7.228;2022-10-16T02:35:42;13.80;99.90
50969;DHT22;36982;51.474;7.228;2022-10-16T02:38:09;13.80;99.90
50969;DHT22;36982;51.474;7.228;2022-10-16T02:40:35;13.80;99.90
50969;DHT22;36982;51.474;7.228;2022-10-16T02:43:03;13.80;99.90
50969;DHT22;36982;51.474;7.228;2022-10-16T02:45:29;13.80;99.90
50969;DHT22;36982;51.474;7.228;2022-10-16T02:47:55;13.70;99.90
50969;DHT22;36982;51.474;7.228;2022-10-16T02:50:20;13.90;99.90
50969;DHT22;36982;51.474;7.228;2022-10-16T02:52:46;13.80;99.90
50969;DHT22;36982;51.474;7.228;2022-10-16T02:55:12;13.80;99.90
50969;DHT22;36982;51.474;7.228;2022-10-16T02:57:37;13.80;99.90
50969;DHT22;36982;51.474;7.228;2022-10-16T03:00:09;13.80;99.90
50969;DHT22;36982;51.474;7.228;2022-10-16T03:02:35;13.80;99.90
50969;DHT22;36982;51.474;7.228;2022-10-16T03:05:00;14.00;99.90
50969;DHT22;36982;51.474;7.228;2022-10-16T03:07:26;13.90;99.90
50969;DHT22;36982;51.474;7.228;2022-10-16T03:09:52;14.00;99.90
50969;DHT22;36982;51.474;7.228;2022-10-16T03:12:17;13.90;99.90
50969;DHT22;36982;51.474;7.228;2022-10-16T03:14:43;13.80;99.90
50969;DHT22;36982;51.474;7.228;2022-10-16T03:17:08;13.90;99.90
50969;DHT22;36982;51.474;7.228;2022-10-16T03:19:34;13.70;99.90
50969;DHT22;36982;51.474;7.228;2022-10-16T03:22:01;13.80;99.90
50969;DHT22;36982;51.474;7.228;2022-10-16T03:24:27;13.80;99.90
50969;DHT22;36982;51.474;7.228;2022-10-16T03:26:52;13.90;99.90
50969;DHT22;36982;51.474;7.228;2022-10-16T03:29:18;13.70;99.90
50969;DHT22;36982;51.474;7.228;2022-10-16T03:31:43;13.80;99.90
50969;DHT22;36982;51.474;7.228;2022-10-16T03:34:09;13.80;99.90
50969;DHT22;36982;51.474;7.228;2022-10-16T03:36:34;13.70;99.90
50969;DHT22;36982;51.474;7.228;2022-10-16T03:39:00;13.70;99.90
50969;DHT22;36982;51.474;7.228;2022-10-16T03:41:25;13.80;99.90
50969;DHT22;36982;51.474;7.228;2022-10-16T03:43:51;13.90;99.90
50969;DHT22;36982;51.474;7.228;2022-10-16T03:46:17;13.80;99.90
50969;DHT22;36982;51.474;7.228;2022-10-16T03:48:42;13.70;99.90
50969;DHT22;36982;51.474;7.228;2022-10-16T03:51:08;13.70;99.90
50969;DHT22;36982;51.474;7.228;2022-10-16T03:53:34;13.80;99.90
50969;DHT22;36982;51.474;7.228;2022-10-16T03:55:59;13.80;99.90
50969;DHT22;36982;51.474;7.228;2022-10-16T03:58:25;13.90;99.90
50969;DHT22;36982;51.474;7.228;2022-10-16T04:00:51;13.70;99.90
50969;DHT22;36982;51.474;7.228;2022-10-16T04:03:16;13.80;99.90
50969;DHT22;36982;51.474;7.228;2022-10-16T04:05:44;13.70;99.90
50969;DHT22;36982;51.474;7.228;2022-10-16T04:08:09;13.80;99.90
50969;DHT22;36982;51.474;7.228;2022-10-16T04:10:35;13.70;99.90
50969;DHT22;36982;51.474;7.228;2022-10-16T04:13:00;13.60;99.90
50969;DHT22;36982;51.474;7.228;2022-10-16T04:15:26;13.60;99.90
50969;DHT22;36982;51.474;7.228;2022-10-16T04:17:52;13.60;99.90
50969;DHT22;36982;51.474;7.228;2022-10-16T04:20:17;13.70;99.90
50969;DHT22;36982;51.474;7.228;2022-10-16T04:22:43;13.50;99.90
50969;DHT22;36982;51.474;7.228;2022-10-16T04:25:09;13.60;99.90
50969;DHT22;36982;51.474;7.228;2022-10-16T04:27:35;13.60;99.90
50969;DHT22;36982;51.474;7.228;2022-10-16T04:30:01;13.60;99.90
50969;DHT22;36982;51.474;7.228;2022-10-16T04:32:26;13.60;99.90
50969;DHT22;36982;51.474;7.228;2022-10-16T04:34:52;13.60;99.90
50969;DHT22;36982;51.474;7.228;2022-10-16T04:37:18;13.50;99.90
50969;DHT22;36982;51.474;7.228;2022-10-16T04:39:44;13.60;99.90
50969;DHT22;36982;51.474;7.228;2022-10-16T04:42:10;13.50;99.90
50969;DHT22;36982;51.474;7.228;2022-10-16T04:44:36;13.50;99.90
50969;DHT22;36982;51.474;7.228;2022-10-16T04:47:01;13.50;99.90
50969;DHT22;36982;51.474;7.228;2022-10-16T04:49:27;13.60;99.90
50969;DHT22;36982;51.474;7.228;2022-10-16T04:51:53;13.60;99.90
50969;DHT22;36982;51.474;7.228;2022-10-16T04:54:18;13.60;99.90
50969;DHT22;36982;51.474;7.228;2022-10-16T04:56:44;13.50;99.90
50969;DHT22;36982;51.474;7.228;2022-10-16T04:59:14;13.40;99.90
50969;DHT22;36982;51.474;7.228;2022-10-16T05:01:40;13.30;99.90
50969;DHT22;36982;51.474;7.228;2022-10-16T05:04:05;13.40;99.90
50969;DHT22;36982;51.474;7.228;2022-10-16T05:06:31;13.40;99.90
50969;DHT22;36982;51.474;7.228;2022-10-16T05:08:57;13.50;99.90
50969;DHT22;36982;51.474;7.228;2022-10-16T05:11:22;13.50;99.90
50969;DHT22;36982;51.474;7.228;2022-10-16T05:13:48;13.50;99.90
50969;DHT22;36982;51.474;7.228;2022-10-16T05:16:13;13.30;99.90
50969;DHT22;36982;51.474;7.228;2022-10-16T05:18:39;13.50;99.90
50969;DHT22;36982;51.474;7.228;2022-10-16T05:21:04;13.60;99.90
50969;DHT22;36982;51.474;7.228;2022-10-16T05:23:31;13.60;99.90
50969;DHT22;36982;51.474;7.228;2022-10-16T05:25:58;13.80;99.90
50969;DHT22;36982;51.474;7.228;2022-10-16T05:28:28;13.80;99.90
50969;DHT22;36982;51.474;7.228;2022-10-16T05:30:55;13.60;99.90
50969;DHT22;36982;51.474;7.228;2022-10-16T05:33:21;13.60;99.90
50969;DHT22;36982;51.474;7.228;2022-10-16T05:35:47;13.60;99.90
50969;DHT22;36982;51.474;7.228;2022-10-16T05:38:13;13.60;99.90
50969;DHT22;36982;51.474;7.228;2022-10-16T05:40:39;13.50;99.90
50969;DHT22;36982;51.474;7.228;2022-10-16T05:43:04;13.50;99.90
50969;DHT22;36982;51.474;7.228;2022-10-16T05:45:30;13.50;99.90
50969;DHT22;36982;51.474;7.228;2022-10-16T05:47:56;13.50;99.90
50969;DHT22;36982;51.474;7.228;2022-10-16T05:50:21;13.60;99.90
50969;DHT22;36982;51.474;7.228;2022-10-16T05:52:47;13.50;99.90
50969;DHT22;36982;51.474;7.228;2022-10-16T05:55:12;13.50;99.90
50969;DHT22;36982;51.474;7.228;2022-10-16T05:57:38;13.50;99.90
50969;DHT22;36982;51.474;7.228;2022-10-16T06:00:05;13.50;99.90
50969;DHT22;36982;51.474;7.228;2022-10-16T06:02:30;13.50;99.90
50969;DHT22;36982;51.474;7.228;2022-10-16T06:04:56;13.50;99.90
50969;DHT22;36982;51.474;7.228;2022-10-16T06:07:22;13.50;99.90
50969;DHT22;36982;51.474;7.228;2022-10-16T06:09:49;13.50;99.90
50969;DHT22;36982;51.474;7.228;2022-10-16T06:12:16;13.60;99.90
50969;DHT22;36982;51.474;7.228;2022-10-16T06:14:41;13.50;99.90
50969;DHT22;36982;51.474;7.228;2022-10-16T06:17:07;13.50;99.90
50969;DHT22;36982;51.474;7.228;2022-10-16T06:19:32;13.50;99.90
50969;DHT22;36982;51.474;7.228;2022-10-16T06:21:58;13.50;99.90
50969;DHT22;36982;51.474;7.228;2022-10-16T06:24:24;13.50;99.90
50969;DHT22;36982;51.474;7.228;2022-10-16T06:26:50;13.50;99.90
50969;DHT22;36982;51.474;7.228;2022-10-16T06:29:15;13.40;99.90
50969;DHT22;36982;51.474;7.228;2022-10-16T06:31:41;13.30;99.90
50969;DHT22;36982;51.474;7.228;2022-10-16T06:34:09;13.40;99.90
50969;DHT22;36982;51.474;7.228;2022-10-16T06:36:36;13.40;99.90
50969;DHT22;36982;51.474;7.228;2022-10-16T06:39:02;13.40;99.90
50969;DHT22;36982;51.474;7.228;2022-10-16T06:41:28;13.40;99.90
50969;DHT22;36982;51.474;7.228;2022-10-16T06:43:54;13.40;99.90
50969;DHT22;36982;51.474;7.228;2022-10-16T06:46:22;13.40;99.90
50969;DHT22;36982;51.474;7.228;2022-10-16T06:48:49;13.50;99.90
50969;DHT22;36982;51.474;7.228;2022-10-16T06:51:17;13.50;99.90
50969;DHT22;36982;51.474;7.228;2022-10-16T06:53:44;13.50;99.90
50969;DHT22;36982;51.474;7.228;2022-10-16T06:58:38;13.60;99.90
50969;DHT22;36982;51.474;7.228;2022-10-16T07:01:04;13.60;99.90
50969;DHT22;36982;51.474;7.228;2022-10-16T07:03:30;13.70;99.90
50969;DHT22;36982;51.474;7.228;2022-10-16T07:05:55;13.60;99.90
50969;DHT22;36982;51.474;7.228;2022-10-16T07:08:21;13.70;99.90
50969;DHT22;36982;51.474;7.228;2022-10-16T07:10:47;13.70;99.90
50969;DHT22;36982;51.474;7.228;2022-10-16T07:13:12;13.70;99.90
50969;DHT22;36982;51.474;7.228;2022-10-16T07:15:40;13.80;99.90
50969;DHT22;36982;51.474;7.228;2022-10-16T07:18:05;13.70;99.90
50969;DHT22;36982;51.474;7.228;2022-10-16T07:20:31;13.70;99.90
50969;DHT22;36982;51.474;7.228;2022-10-16T07:22:56;13.70;99.90
50969;DHT22;36982;51.474;7.228;2022-10-16T07:25:22;13.70;99.90
50969;DHT22;36982;51.474;7.228;2022-10-16T07:27:48;13.80;99.90
50969;DHT22;36982;51.474;7.228;2022-10-16T07:30:13;13.80;99.90
50969;DHT22;36982;51.474;7.228;2022-10-16T07:32:39;13.80;99.90
50969;DHT22;36982;51.474;7.228;2022-10-16T07:35:05;13.70;99.90
50969;DHT22;36982;51.474;7.228;2022-10-16T07:37:30;13.80;99.90
50969;DHT22;36982;51.474;7.228;2022-10-16T07:39:56;13.80;99.90
50969;DHT22;36982;51.474;7.228;2022-10-16T07:42:21;13.70;99.90
50969;DHT22;36982;51.474;7.228;2022-10-16T07:44:47;13.90;99.90
50969;DHT22;36982;51.474;7.228;2022-10-16T07:47:13;14.00;99.90
50969;DHT22;36982;51.474;7.228;2022-10-16T07:49:39;13.90;99.90
50969;DHT22;36982;51.474;7.228;2022-10-16T07:52:04;14.00;99.90
50969;DHT22;36982;51.474;7.228;2022-10-16T07:54:30;14.10;99.90
50969;DHT22;36982;51.474;7.228;2022-10-16T07:56:55;14.00;99.90
50969;DHT22;36982;51.474;7.228;2022-10-16T07:59:21;14.10;99.90
50969;DHT22;36982;51.474;7.228;2022-10-16T08:01:46;14.10;99.90
50969;DHT22;36982;51.474;7.228;2022-10-16T08:04:13;14.20;99.90
50969;DHT22;36982;51.474;7.228;2022-10-16T08:06:40;14.20;99.90
50969;DHT22;36982;51.474;7.228;2022-10-16T08:09:06;14.30;99.90
50969;DHT22;36982;51.474;7.228;2022-10-16T08:11:32;14.20;99.90
50969;DHT22;36982;51.474;7.228;2022-10-16T08:13:58;14.40;99.90
50969;DHT22;36982;51.474;7.228;2022-10-16T08:16:24;14.40;99.90
50969;DHT22;36982;51.474;7.228;2022-10-16T08:18:50;14.70;99.90
50969;DHT22;36982;51.474;7.228;2022-10-16T08:21:19;14.60;99.90
50969;DHT22;36982;51.474;7.228;2022-10-16T08:23:45;14.60;99.90
50969;DHT22;36982;51.474;7.228;2022-10-16T08:26:11;14.70;99.90
50969;DHT22;36982;51.474;7.228;2022-10-16T08:28:38;14.80;99.90
50969;DHT22;36982;51.474;7.228;2022-10-16T08:31:12;14.80;99.90
50969;DHT22;36982;51.474;7.228;2022-10-16T08:33:41;14.90;99.90
50969;DHT22;36982;51.474;7.228;2022-10-16T08:36:06;14.90;99.90
50969;DHT22;36982;51.474;7.228;2022-10-16T08:38:33;15.00;99.90
50969;DHT22;36982;51.474;7.228;2022-10-16T08:41:31;15.00;99.90
50969;DHT22;36982;51.474;7.228;2022-10-16T08:47:17;15.20;99.90
50969;DHT22;36982;51.474;7.228;2022-10-16T08:49:56;15.20;99.90
50969;DHT22;36982;51.474;7.228;2022-10-16T08:52:22;15.30;99.90
50969;DHT22;36982;51.474;7.228;2022-10-16T08:54:51;15.20;99.90
50969;DHT22;36982;51.474;7.228;2022-10-16T08:57:20;15.30;99.90
50969;DHT22;36982;51.474;7.228;2022-10-16T08:59:46;15.30;99.90
50969;DHT22;36982;51.474;7.228;2022-10-16T09:02:37;15.40;99.90
50969;DHT22;36982;51.474;7.228;2022-10-16T09:08:09;15.50;99.90
50969;DHT22;36982;51.474;7.228;2022-10-16T09:10:50;15.50;99.90
50969;DHT22;36982;51.474;7.228;2022-10-16T09:13:40;15.50;99.90
50969;DHT22;36982;51.474;7.228;2022-10-16T09:16:33;15.60;99.90
50969;DHT22;36982;51.474;7.228;2022-10-16T09:21:41;15.60;99.90
50969;DHT22;36982;51.474;7.228;2022-10-16T09:24:25;15.70;99.90
50969;DHT22;36982;51.474;7.228;2022-10-16T09:26:51;15.70;99.90
50969;DHT22;36982;51.474;7.228;2022-10-16T09:29:19;15.80;99.90
50969;DHT22;36982;51.474;7.228;2022-10-16T09:31:51;16.00;99.90
50969;DHT22;36982;51.474;7.228;2022-10-16T09:34:39;16.10;99.90
50969;DHT22;36982;51.474;7.228;2022-10-16T09:37:12;15.90;99.90
50969;DHT22;36982;51.474;7.228;2022-10-16T09:39:56;16.00;99.90
50969;DHT22;36982;51.474;7.228;2022-10-16T09:42:30;16.10;99.90
50969;DHT22;36982;51.474;7.228;2022-10-16T09:44:56;16.10;99.90
50969;DHT22;36982;51.474;7.228;2022-10-16T09:47:30;16.20;99.90
50969;DHT22;36982;51.474;7.228;2022-10-16T09:50:04;16.20;99.90
50969;DHT22;36982;51.474;7.228;2022-10-16T09:52:32;16.20;99.90
50969;DHT22;36982;51.474;7.228;2022-10-16T09:54:59;16.30;99.90
50969;DHT22;36982;51.474;7.228;2022-10-16T09:57:26;16.30;99.90
50969;DHT22;36982;51.474;7.228;2022-10-16T09:59:53;16.30;99.90
50969;DHT22;36982;51.474;7.228;2022-10-16T10:02:39;16.30;99.90
50969;DHT22;36982;51.474;7.228;2022-10-16T10:05:18;16.20;99.90
50969;DHT22;36982;51.474;7.228;2022-10-16T10:07:44;16.20;99.90
50969;DHT22;36982;51.474;7.228;2022-10-16T10:10:23;16.20;99.90
50969;DHT22;36982;51.474;7.228;2022-10-16T10:12:49;16.40;99.90
50969;DHT22;36982;51.474;7.228;2022-10-16T10:15:15;16.40;99.90
50969;DHT22;36982;51.474;7.228;2022-10-16T10:17:49;16.40;99.90
50969;DHT22;36982;51.474;7.228;2022-10-16T10:22:49;16.50;99.90
50969;DHT22;36982;51.474;7.228;2022-10-16T10:25:23;16.60;99.90
50969;DHT22;36982;51.474;7.228;2022-10-16T10:33:24;16.80;99.90
50969;DHT22;36982;51.474;7.228;2022-10-16T10:44:04;16.70;99.90
50969;DHT22;36982;51.474;7.228;2022-10-16T10:46:42;16.90;99.90
50969;DHT22;36982;51.474;7.228;2022-10-16T10:49:24;16.80;99.90
50969;DHT22;36982;51.474;7.228;2022-10-16T10:52:08;16.80;99.90
50969;DHT22;36982;51.474;7.228;2022-10-16T10:54:52;16.90;99.90
50969;DHT22;36982;51.474;7.228;2022-10-16T11:01:04;17.00;99.90
50969;DHT22;36982;51.474;7.228;2022-10-16T11:06:25;17.00;99.90
50969;DHT22;36982;51.474;7.228;2022-10-16T11:09:25;16.90;99.90
50969;DHT22;36982;51.474;7.228;2022-10-16T11:12:12;16.90;99.90
50969;DHT22;36982;51.474;7.228;2022-10-16T11:14:48;16.90;99.90
50969;DHT22;36982;51.474;7.228;2022-10-16T11:17:22;17.00;99.90
50969;DHT22;36982;51.474;7.228;2022-10-16T11:22:52;17.00;99.90
50969;DHT22;36982;51.474;7.228;2022-10-16T11:25:28;17.10;99.90
50969;DHT22;36982;51.474;7.228;2022-10-16T11:28:20;17.10;99.90
50969;DHT22;36982;51.474;7.228;2022-10-16T11:31:18;17.20;99.90
50969;DHT22;36982;51.474;7.228;2022-10-16T11:33:46;17.40;99.90
50969;DHT22;36982;51.474;7.228;2022-10-16T11:39:20;17.40;99.90
50969;DHT22;36982;51.474;7.228;2022-10-16T11:51:11;17.50;99.90
50969;DHT22;36982;51.474;7.228;2022-10-16T11:54:08;17.60;99.90
50969;DHT22;36982;51.474;7.228;2022-10-16T11:56:41;17.70;99.90
50969;DHT22;36982;51.474;7.228;2022-10-16T12:02:41;18.00;99.90
50969;DHT22;36982;51.474;7.228;2022-10-16T12:05:20;18.10;99.90
50969;DHT22;36982;51.474;7.228;2022-10-16T12:08:04;18.10;99.90
50969;DHT22;36982;51.474;7.228;2022-10-16T12:10:30;18.00;99.90
50969;DHT22;36982;51.474;7.228;2022-10-16T12:12:59;18.00;99.90
50969;DHT22;36982;51.474;7.228;2022-10-16T12:17:52;18.00;99.90
50969;DHT22;36982;51.474;7.228;2022-10-16T12:20:19;17.90;99.90
50969;DHT22;36982;51.474;7.228;2022-10-16T12:22:57;17.90;99.90
50969;DHT22;36982;51.474;7.228;2022-10-16T12:25:30;17.80;99.90
50969;DHT22;36982;51.474;7.228;2022-10-16T12:28:17;17.80;99.90
50969;DHT22;36982;51.474;7.228;2022-10-16T12:30:52;17.70;99.90
50969;DHT22;36982;51.474;7.228;2022-10-16T12:33:30;17.80;99.90
50969;DHT22;36982;51.474;7.228;2022-10-16T12:35:58;17.80;99.90
50969;DHT22;36982;51.474;7.228;2022-10-16T12:41:00;17.90;99.90
50969;DHT22;36982;51.474;7.228;2022-10-16T12:46:39;18.10;99.90
50969;DHT22;36982;51.474;7.228;2022-10-16T12:58:57;18.30;99.90
50969;DHT22;36982;51.474;7.228;2022-10-16T13:04:47;18.30;99.90
50969;DHT22;36982;51.474;7.228;2022-10-16T13:26:52;17.90;99.90
50969;DHT22;36982;51.474;7.228;2022-10-16T13:29:20;17.80;99.90
50969;DHT22;36982;51.474;7.228;2022-10-16T13:31:46;17.80;99.90
50969;DHT22;36982;51.474;7.228;2022-10-16T13:34:21;17.90;99.90
50969;DHT22;36982;51.474;7.228;2022-10-16T13:36:50;17.80;99.90
50969;DHT22;36982;51.474;7.228;2022-10-16T13:39:44;17.90;99.90
50969;DHT22;36982;51.474;7.228;2022-10-16T13:42:18;17.80;99.90
50969;DHT22;36982;51.474;7.228;2022-10-16T13:44:50;17.80;99.90
50969;DHT22;36982;51.474;7.228;2022-10-16T13:47:24;17.70;99.90
50969;DHT22;36982;51.474;7.228;2022-10-16T13:50:06;17.70;99.90
50969;DHT22;36982;51.474;7.228;2022-10-16T13:52:32;17.70;99.90
50969;DHT22;36982;51.474;7.228;2022-10-16T13:54:58;17.70;99.90
50969;DHT22;36982;51.474;7.228;2022-10-16T13:57:24;17.70;99.90
50969;DHT22;36982;51.474;7.228;2022-10-16T13:59:50;17.60;99.90
50969;DHT22;36982;51.474;7.228;2022-10-16T14:02:33;17.80;99.90
50969;DHT22;36982;51.474;7.228;2022-10-16T14:05:02;17.80;99.90
50969;DHT22;36982;51.474;7.228;2022-10-16T14:07:31;17.80;99.90
50969;DHT22;36982;51.474;7.228;2022-10-16T14:10:05;17.90;99.90
50969;DHT22;36982;51.474;7.228;2022-10-16T14:12:32;17.90;99.90
50969;DHT22;36982;51.474;7.228;2022-10-16T14:14:58;18.00;99.90
50969;DHT22;36982;51.474;7.228;2022-10-16T14:17:31;18.10;99.90
50969;DHT22;36982;51.474;7.228;2022-10-16T14:19:59;18.20;99.90
50969;DHT22;36982;51.474;7.228;2022-10-16T14:22:32;18.20;99.90
50969;DHT22;36982;51.474;7.228;2022-10-16T14:24:58;18.30;99.90
50969;DHT22;36982;51.474;7.228;2022-10-16T14:27:34;18.20;99.90
50969;DHT22;36982;51.474;7.228;2022-10-16T14:30:21;18.10;99.90
50969;DHT22;36982;51.474;7.228;2022-10-16T14:33:21;18.00;99.90
50969;DHT22;36982;51.474;7.228;2022-10-16T14:38:26;18.00;99.90
50969;DHT22;36982;51.474;7.228;2022-10-16T14:40:52;17.90;99.90
50969;DHT22;36982;51.474;7.228;2022-10-16T14:43:22;17.90;99.90
50969;DHT22;36982;51.474;7.228;2022-10-16T14:45:54;17.90;99.90
50969;DHT22;36982;51.474;7.228;2022-10-16T14:48:21;17.90;99.90
50969;DHT22;36982;51.474;7.228;2022-10-16T14:50:47;17.90;99.90
50969;DHT22;36982;51.474;7.228;2022-10-16T14:53:13;17.80;99.90
50969;DHT22;36982;51.474;7.228;2022-10-16T14:55:39;17.80;99.90
50969;DHT22;36982;51.474;7.228;2022-10-16T14:58:25;18.00;99.90
50969;DHT22;36982;51.474;7.228;2022-10-16T15:00:51;18.10;99.90
50969;DHT22;36982;51.474;7.228;2022-10-16T15:03:17;18.10;99.90
50969;DHT22;36982;51.474;7.228;2022-10-16T15:05:42;18.00;99.90
50969;DHT22;36982;51.474;7.228;2022-10-16T15:08:08;18.10;99.90
50969;DHT22;36982;51.474;7.228;2022-10-16T15:10:42;18.00;99.90
50969;DHT22;36982;51.474;7.228;2022-10-16T15:13:13;17.90;99.90
50969;DHT22;36982;51.474;7.228;2022-10-16T15:15:46;17.90;99.90
50969;DHT22;36982;51.474;7.228;2022-10-16T15:18:12;18.00;99.90
50969;DHT22;36982;51.474;7.228;2022-10-16T15:20:40;17.90;99.90
50969;DHT22;36982;51.474;7.228;2022-10-16T15:23:13;17.80;99.90
50969;DHT22;36982;51.474;7.228;2022-10-16T15:25:45;17.70;99.90
50969;DHT22;36982;51.474;7.228;2022-10-16T15:28:12;17.80;99.90
50969;DHT22;36982;51.474;7.228;2022-10-16T15:30:39;17.90;99.90
50969;DHT22;36982;51.474;7.228;2022-10-16T15:33:10;17.90;99.90
50969;DHT22;36982;51.474;7.228;2022-10-16T15:35:36;17.90;99.90
50969;DHT22;36982;51.474;7.228;2022-10-16T15:38:02;18.00;99.90
50969;DHT22;36982;51.474;7.228;2022-10-16T15:40:27;17.70;99.90
50969;DHT22;36982;51.474;7.228;2022-10-16T15:42:53;17.80;99.90
50969;DHT22;36982;51.474;7.228;2022-10-16T15:45:18;17.80;99.90
50969;DHT22;36982;51.474;7.228;2022-10-16T15:47:45;17.60;99.90
50969;DHT22;36982;51.474;7.228;2022-10-16T15:50:14;17.80;99.90
50969;DHT22;36982;51.474;7.228;2022-10-16T15:52:40;17.80;99.90
50969;DHT22;36982;51.474;7.228;2022-10-16T15:55:11;17.80;99.90
50969;DHT22;36982;51.474;7.228;2022-10-16T15:57:38;17.70;99.90
50969;DHT22;36982;51.474;7.228;2022-10-16T16:00:07;17.60;99.90
50969;DHT22;36982;51.474;7.228;2022-10-16T16:02:33;17.60;99.90
50969;DHT22;36982;51.474;7.228;2022-10-16T16:04:58;17.60;99.90
50969;DHT22;36982;51.474;7.228;2022-10-16T16:07:24;17.50;99.90
50969;DHT22;36982;51.474;7.228;2022-10-16T16:10:06;17.40;99.90
50969;DHT22;36982;51.474;7.228;2022-10-16T16:12:32;17.40;99.90
50969;DHT22;36982;51.474;7.228;2022-10-16T16:14:58;17.40;99.90
50969;DHT22;36982;51.474;7.228;2022-10-16T16:17:24;17.50;99.90
50969;DHT22;36982;51.474;7.228;2022-10-16T16:19:50;17.50;99.90
50969;DHT22;36982;51.474;7.228;2022-10-16T16:22:16;17.40;99.90
50969;DHT22;36982;51.474;7.228;2022-10-16T16:24:42;17.40;99.90
50969;DHT22;36982;51.474;7.228;2022-10-16T16:27:09;17.40;99.90
50969;DHT22;36982;51.474;7.228;2022-10-16T16:29:35;17.40;99.90
50969;DHT22;36982;51.474;7.228;2022-10-16T16:32:01;17.20;99.90
50969;DHT22;36982;51.474;7.228;2022-10-16T16:34:27;17.20;99.90
50969;DHT22;36982;51.474;7.228;2022-10-16T16:36:54;17.20;99.90
50969;DHT22;36982;51.474;7.228;2022-10-16T16:39:20;17.20;99.90
50969;DHT22;36982;51.474;7.228;2022-10-16T16:41:46;17.20;99.90
50969;DHT22;36982;51.474;7.228;2022-10-16T16:44:13;17.10;99.90
50969;DHT22;36982;51.474;7.228;2022-10-16T16:46:39;17.00;99.90
50969;DHT22;36982;51.474;7.228;2022-10-16T16:49:06;17.00;99.90
50969;DHT22;36982;51.474;7.228;2022-10-16T16:51:33;16.90;99.90
50969;DHT22;36982;51.474;7.228;2022-10-16T16:53:59;16.90;99.90
50969;DHT22;36982;51.474;7.228;2022-10-16T16:56:25;16.70;99.90
50969;DHT22;36982;51.474;7.228;2022-10-16T16:58:54;16.70;99.90
50969;DHT22;36982;51.474;7.228;2022-10-16T17:01:20;16.80;99.90
50969;DHT22;36982;51.474;7.228;2022-10-16T17:03:48;16.70;99.90
50969;DHT22;36982;51.474;7.228;2022-10-16T17:06:15;16.70;99.90
50969;DHT22;36982;51.474;7.228;2022-10-16T17:08:41;16.80;99.90
50969;DHT22;36982;51.474;7.228;2022-10-16T17:11:16;16.70;99.90
50969;DHT22;36982;51.474;7.228;2022-10-16T17:13:42;16.60;99.90
50969;DHT22;36982;51.474;7.228;2022-10-16T17:16:08;16.50;99.90
50969;DHT22;36982;51.474;7.228;2022-10-16T17:18:34;16.50;99.90
50969;DHT22;36982;51.474;7.228;2022-10-16T17:21:02;16.40;99.90
50969;DHT22;36982;51.474;7.228;2022-10-16T17:23:28;16.50;99.90
50969;DHT22;36982;51.474;7.228;2022-10-16T17:25:54;16.40;99.90
50969;DHT22;36982;51.474;7.228;2022-10-16T17:28:26;16.40;99.90
50969;DHT22;36982;51.474;7.228;2022-10-16T17:30:51;16.30;99.90
50969;DHT22;36982;51.474;7.228;2022-10-16T17:33:17;16.30;99.90
50969;DHT22;36982;51.474;7.228;2022-10-16T17:35:45;16.30;99.90
50969;DHT22;36982;51.474;7.228;2022-10-16T17:38:12;16.30;99.90